createdAt,value
2019-03-27T00:00:53.059Z,1008.59
2019-03-27T00:01:53.029Z,1008.62
2019-03-27T00:02:53.022Z,1008.63
2019-03-27T00:03:53.012Z,1008.58
2019-03-27T00:04:53.006Z,1008.63
2019-03-27T00:05:52.989Z,1008.58
2019-03-27T00:06:52.991Z,1008.59
2019-03-27T00:07:52.971Z,1008.63
2019-03-27T00:08:52.961Z,1008.59
2019-03-27T00:09:52.967Z,1008.58
2019-03-27T00:10:52.936Z,1008.62
2019-03-27T00:11:52.928Z,1008.61
2019-03-27T00:12:52.948Z,1008.59
2019-03-27T00:13:52.903Z,1008.60
2019-03-27T00:14:52.896Z,1008.56
2019-03-27T00:15:52.890Z,1008.52
2019-03-27T00:16:52.873Z,1008.50
2019-03-27T00:17:52.860Z,1008.49
2019-03-27T00:18:52.866Z,1008.50
2019-03-27T00:19:52.848Z,1008.45
2019-03-27T00:20:52.839Z,1008.47
2019-03-27T00:21:52.819Z,1008.47
2019-03-27T00:22:52.819Z,1008.47
2019-03-27T00:23:52.817Z,1008.44
2019-03-27T00:24:52.810Z,1008.45
2019-03-27T00:25:52.803Z,1008.47
2019-03-27T00:26:52.768Z,1008.50
2019-03-27T00:27:52.778Z,1008.46
2019-03-27T00:28:52.759Z,1008.40
2019-03-27T00:29:52.738Z,1008.41
2019-03-27T00:30:52.744Z,1008.41
2019-03-27T00:31:52.719Z,1008.38
2019-03-27T00:32:52.707Z,1008.42
2019-03-27T00:33:52.697Z,1008.42
2019-03-27T00:34:52.683Z,1008.48
2019-03-27T00:35:52.670Z,1008.46
2019-03-27T00:36:52.685Z,1008.42
2019-03-27T00:37:52.655Z,1008.47
2019-03-27T00:38:52.659Z,1008.45
2019-03-27T00:39:52.626Z,1008.42
2019-03-27T00:40:52.615Z,1008.52
2019-03-27T00:41:52.613Z,1008.49
2019-03-27T00:42:52.631Z,1008.47
2019-03-27T00:43:52.591Z,1008.48
2019-03-27T00:44:52.589Z,1008.44
2019-03-27T00:45:52.597Z,1008.40
2019-03-27T00:46:52.558Z,1008.37
2019-03-27T00:47:52.545Z,1008.42
2019-03-27T00:48:52.554Z,1008.43
2019-03-27T00:49:52.531Z,1008.46
2019-03-27T00:50:52.505Z,1008.49
2019-03-27T00:51:52.498Z,1008.52
2019-03-27T00:52:52.493Z,1008.50
2019-03-27T00:53:52.477Z,1008.51
2019-03-27T00:54:52.481Z,1008.51
2019-03-27T00:55:52.463Z,1008.51
2019-03-27T00:56:52.463Z,1008.51
2019-03-27T00:57:52.438Z,1008.46
2019-03-27T00:58:52.423Z,1008.45
2019-03-27T00:59:52.407Z,1008.47
2019-03-27T01:00:52.412Z,1008.47
2019-03-27T01:01:53.292Z,1008.49
2019-03-27T01:02:52.376Z,1008.51
2019-03-27T01:03:52.364Z,1008.48
2019-03-27T01:04:52.377Z,1008.48
2019-03-27T01:05:52.357Z,1008.50
2019-03-27T01:06:52.354Z,1008.47
2019-03-27T01:07:52.323Z,1008.45
2019-03-27T01:08:52.350Z,1008.46
2019-03-27T01:09:52.297Z,1008.46
2019-03-27T01:10:52.289Z,1008.44
2019-03-27T01:11:52.300Z,1008.48
2019-03-27T01:12:52.302Z,1008.48
2019-03-27T01:13:52.254Z,1008.46
2019-03-27T01:14:52.247Z,1008.44
2019-03-27T01:15:52.230Z,1008.43
2019-03-27T01:16:52.221Z,1008.45
2019-03-27T01:17:52.262Z,1008.49
2019-03-27T01:18:52.218Z,1008.48
2019-03-27T01:19:52.196Z,1008.43
2019-03-27T01:20:52.184Z,1008.40
2019-03-27T01:21:52.171Z,1008.45
2019-03-27T01:22:52.152Z,1008.44
2019-03-27T01:23:52.142Z,1008.46
2019-03-27T01:24:52.160Z,1008.49
2019-03-27T01:25:52.125Z,1008.45
2019-03-27T01:26:52.109Z,1008.46
2019-03-27T01:27:52.098Z,1008.45
2019-03-27T01:28:52.087Z,1008.45
2019-03-27T01:29:52.079Z,1008.38
2019-03-27T01:30:52.091Z,1008.40
2019-03-27T01:31:52.073Z,1008.40
2019-03-27T01:32:52.045Z,1008.40
2019-03-27T01:33:52.031Z,1008.42
2019-03-27T01:34:52.036Z,1008.35
2019-03-27T01:35:52.020Z,1008.39
2019-03-27T01:36:52.025Z,1008.36
2019-03-27T01:37:51.995Z,1008.33
2019-03-27T01:38:51.976Z,1008.35
2019-03-27T01:39:51.965Z,1008.34
2019-03-27T01:40:51.969Z,1008.36
2019-03-27T01:41:51.950Z,1008.31
2019-03-27T01:42:51.980Z,1008.32
2019-03-27T01:43:51.955Z,1008.35
2019-03-27T01:44:51.911Z,1008.35
2019-03-27T01:45:53.310Z,1008.33
2019-03-27T01:46:51.887Z,1008.28
2019-03-27T01:47:51.907Z,1008.37
2019-03-27T01:48:51.889Z,1008.30
2019-03-27T01:49:51.854Z,1008.27
2019-03-27T01:50:51.844Z,1008.26
2019-03-27T01:51:51.837Z,1008.32
2019-03-27T01:52:51.830Z,1008.34
2019-03-27T01:53:51.814Z,1008.32
2019-03-27T01:54:51.819Z,1008.28
2019-03-27T01:55:51.789Z,1008.33
2019-03-27T01:56:51.776Z,1008.35
2019-03-27T01:57:51.769Z,1008.36
2019-03-27T01:58:51.756Z,1008.33
2019-03-27T01:59:51.745Z,1008.37
2019-03-27T02:00:51.775Z,1008.34
2019-03-27T02:01:51.722Z,1008.33
2019-03-27T02:02:51.740Z,1008.32
2019-03-27T02:03:51.703Z,1008.33
2019-03-27T02:04:51.690Z,1008.33
2019-03-27T02:05:51.689Z,1008.35
2019-03-27T02:06:51.695Z,1008.37
2019-03-27T02:07:51.680Z,1008.38
2019-03-27T02:08:51.646Z,1008.40
2019-03-27T02:09:51.642Z,1008.34
2019-03-27T02:10:51.625Z,1008.36
2019-03-27T02:11:51.619Z,1008.39
2019-03-27T02:12:51.622Z,1008.39
2019-03-27T02:13:51.590Z,1008.36
2019-03-27T02:14:51.602Z,1008.35
2019-03-27T02:15:51.579Z,1008.33
2019-03-27T02:16:51.557Z,1008.37
2019-03-27T02:17:51.554Z,1008.35
2019-03-27T02:18:51.564Z,1008.33
2019-03-27T02:19:51.530Z,1008.32
2019-03-27T02:20:51.521Z,1008.36
2019-03-27T02:21:51.501Z,1008.42
2019-03-27T02:22:51.498Z,1008.34
2019-03-27T02:23:51.479Z,1008.42
2019-03-27T02:24:51.489Z,1008.44
2019-03-27T02:25:51.455Z,1008.50
2019-03-27T02:26:51.449Z,1008.44
2019-03-27T02:27:51.437Z,1008.47
2019-03-27T02:28:51.458Z,1008.50
2019-03-27T02:29:51.412Z,1008.45
2019-03-27T02:30:51.451Z,1008.48
2019-03-27T02:31:51.390Z,1008.53
2019-03-27T02:32:51.382Z,1008.48
2019-03-27T02:33:51.372Z,1008.46
2019-03-27T02:34:51.371Z,1008.45
2019-03-27T02:35:51.359Z,1008.51
2019-03-27T02:36:51.361Z,1008.48
2019-03-27T02:37:51.327Z,1008.54
2019-03-27T02:38:51.317Z,1008.53
2019-03-27T02:39:51.324Z,1008.57
2019-03-27T02:40:51.294Z,1008.58
2019-03-27T02:41:51.283Z,1008.60
2019-03-27T02:42:51.289Z,1008.48
2019-03-27T02:43:51.302Z,1008.51
2019-03-27T02:44:51.269Z,1008.50
2019-03-27T02:45:51.243Z,1008.46
2019-03-27T02:46:51.249Z,1008.52
2019-03-27T02:47:51.219Z,1008.47
2019-03-27T02:48:51.230Z,1008.48
2019-03-27T02:49:51.200Z,1008.44
2019-03-27T02:50:51.184Z,1008.45
2019-03-27T02:51:51.179Z,1008.47
2019-03-27T02:52:51.198Z,1008.46
2019-03-27T02:53:51.155Z,1008.48
2019-03-27T02:54:51.174Z,1008.46
2019-03-27T02:55:51.148Z,1008.50
2019-03-27T02:56:51.115Z,1008.45
2019-03-27T02:57:51.141Z,1008.40
2019-03-27T02:58:51.100Z,1008.45
2019-03-27T02:59:51.086Z,1008.43
2019-03-27T03:00:51.093Z,1008.42
2019-03-27T03:01:51.067Z,1008.45
2019-03-27T03:02:51.074Z,1008.38
2019-03-27T03:03:51.037Z,1008.38
2019-03-27T03:04:51.036Z,1008.38
2019-03-27T03:05:51.014Z,1008.38
2019-03-27T03:06:51.023Z,1008.46
2019-03-27T03:07:51.006Z,1008.43
2019-03-27T03:08:50.990Z,1008.42
2019-03-27T03:09:50.969Z,1008.41
2019-03-27T03:10:50.962Z,1008.42
2019-03-27T03:11:50.954Z,1008.40
2019-03-27T03:12:50.981Z,1008.41
2019-03-27T03:13:50.925Z,1008.42
2019-03-27T03:14:50.916Z,1008.42
2019-03-27T03:15:50.902Z,1008.45
2019-03-27T03:16:50.892Z,1008.50
2019-03-27T03:17:50.884Z,1008.46
2019-03-27T03:18:50.889Z,1008.45
2019-03-27T03:19:50.860Z,1008.51
2019-03-27T03:20:50.857Z,1008.44
2019-03-27T03:21:50.842Z,1008.43
2019-03-27T03:22:50.837Z,1008.37
2019-03-27T03:23:50.818Z,1008.33
2019-03-27T03:24:50.832Z,1008.41
2019-03-27T03:25:50.796Z,1008.35
2019-03-27T03:26:51.637Z,1008.39
2019-03-27T03:27:50.777Z,1008.43
2019-03-27T03:28:50.765Z,1008.40
2019-03-27T03:29:50.749Z,1008.40
2019-03-27T03:30:50.777Z,1008.41
2019-03-27T03:31:50.757Z,1008.41
2019-03-27T03:32:50.723Z,1008.37
2019-03-27T03:33:50.725Z,1008.40
2019-03-27T03:34:50.697Z,1008.38
2019-03-27T03:35:50.680Z,1008.40
2019-03-27T03:36:50.698Z,1008.39
2019-03-27T03:37:50.666Z,1008.39
2019-03-27T03:38:50.660Z,1008.39
2019-03-27T03:39:50.640Z,1008.37
2019-03-27T03:40:50.636Z,1008.38
2019-03-27T03:41:50.625Z,1008.38
2019-03-27T03:42:50.625Z,1008.38
2019-03-27T03:43:50.594Z,1008.44
2019-03-27T03:44:50.589Z,1008.37
2019-03-27T03:45:50.577Z,1008.44
2019-03-27T03:46:59.592Z,1008.46
2019-03-27T03:47:51.567Z,1008.45
2019-03-27T03:48:50.539Z,1008.48
2019-03-27T03:49:50.528Z,1008.50
2019-03-27T03:50:50.523Z,1008.49
2019-03-27T03:51:50.517Z,1008.52
2019-03-27T03:52:50.502Z,1008.56
2019-03-27T03:53:50.503Z,1008.53
2019-03-27T03:54:50.481Z,1008.55
2019-03-27T03:55:50.470Z,1008.50
2019-03-27T03:56:50.454Z,1008.54
2019-03-27T03:57:50.448Z,1008.59
2019-03-27T03:58:50.471Z,1008.54
2019-03-27T03:59:50.455Z,1008.58
2019-03-27T04:00:50.423Z,1008.57
2019-03-27T04:01:50.397Z,1008.60
2019-03-27T04:02:50.385Z,1008.58
2019-03-27T04:03:50.383Z,1008.58
2019-03-27T04:04:50.397Z,1008.63
2019-03-27T04:05:50.405Z,1008.61
2019-03-27T04:06:50.347Z,1008.55
2019-03-27T04:07:50.331Z,1008.57
2019-03-27T04:08:50.332Z,1008.60
2019-03-27T04:09:50.310Z,1008.58
2019-03-27T04:10:50.368Z,1008.58
2019-03-27T04:11:50.314Z,1008.58
2019-03-27T04:12:50.287Z,1008.57
2019-03-27T04:13:50.267Z,1008.56
2019-03-27T04:14:50.254Z,1008.58
2019-03-27T04:15:50.250Z,1008.59
2019-03-27T04:16:50.245Z,1008.60
2019-03-27T04:17:50.249Z,1008.60
2019-03-27T04:18:50.213Z,1008.54
2019-03-27T04:19:50.224Z,1008.57
2019-03-27T04:20:50.190Z,1008.56
2019-03-27T04:21:50.181Z,1008.53
2019-03-27T04:22:50.164Z,1008.61
2019-03-27T04:23:50.189Z,1008.59
2019-03-27T04:24:50.152Z,1008.56
2019-03-27T04:26:10.719Z,1008.55
2019-03-27T04:26:51.119Z,1008.64
2019-03-27T04:27:50.115Z,1008.62
2019-03-27T04:28:50.099Z,1008.65
2019-03-27T04:29:50.111Z,1008.68
2019-03-27T04:30:50.084Z,1008.66
2019-03-27T04:31:50.073Z,1008.67
2019-03-27T04:32:50.057Z,1008.68
2019-03-27T04:33:50.045Z,1008.70
2019-03-27T04:34:50.035Z,1008.75
2019-03-27T04:35:50.037Z,1008.79
2019-03-27T04:36:50.025Z,1008.81
2019-03-27T04:37:50.022Z,1008.83
2019-03-27T04:38:50.006Z,1008.84
2019-03-27T04:39:49.975Z,1008.86
2019-03-27T04:40:49.963Z,1008.89
2019-03-27T04:41:49.983Z,1008.86
2019-03-27T04:42:49.950Z,1008.90
2019-03-27T04:43:49.933Z,1008.91
2019-03-27T04:44:49.919Z,1008.94
2019-03-27T04:45:49.908Z,1008.89
2019-03-27T04:46:49.921Z,1008.93
2019-03-27T04:47:49.923Z,1008.99
2019-03-27T04:48:49.883Z,1008.90
2019-03-27T04:49:49.867Z,1008.91
2019-03-27T04:50:49.857Z,1008.97
2019-03-27T04:51:49.872Z,1008.97
2019-03-27T04:52:49.830Z,1009.01
2019-03-27T04:53:49.842Z,1008.99
2019-03-27T04:54:49.816Z,1008.96
2019-03-27T04:55:49.806Z,1008.94
2019-03-27T04:56:49.790Z,1008.94
2019-03-27T04:57:49.788Z,1008.92
2019-03-27T04:58:49.773Z,1008.90
2019-03-27T04:59:49.780Z,1008.93
2019-03-27T05:00:49.836Z,1008.92
2019-03-27T05:01:49.753Z,1008.97
2019-03-27T05:02:49.730Z,1008.97
2019-03-27T05:03:49.717Z,1009.02
2019-03-27T05:04:49.713Z,1008.98
2019-03-27T05:05:49.709Z,1009.00
2019-03-27T05:06:49.703Z,1009.04
2019-03-27T05:07:49.669Z,1009.11
2019-03-27T05:08:49.656Z,1009.11
2019-03-27T05:09:49.660Z,1009.07
2019-03-27T05:10:49.696Z,1009.03
2019-03-27T05:11:49.649Z,1008.98
2019-03-27T05:12:49.628Z,1009.04
2019-03-27T05:13:49.603Z,1009.03
2019-03-27T05:14:49.591Z,1009.01
2019-03-27T05:15:49.585Z,1009.05
2019-03-27T05:16:49.571Z,1009.01
2019-03-27T05:17:49.572Z,1009.02
2019-03-27T05:18:49.551Z,1009.02
2019-03-27T05:19:49.537Z,1008.99
2019-03-27T05:20:49.534Z,1009.01
2019-03-27T05:21:49.523Z,1009.06
2019-03-27T05:22:49.503Z,1009.06
2019-03-27T05:23:49.516Z,1009.13
2019-03-27T05:24:49.488Z,1009.04
2019-03-27T05:25:49.470Z,1009.04
2019-03-27T05:26:49.465Z,1009.10
2019-03-27T05:27:49.447Z,1009.12
2019-03-27T05:28:49.442Z,1009.10
2019-03-27T05:29:49.439Z,1009.07
2019-03-27T05:30:49.418Z,1009.03
2019-03-27T05:31:49.404Z,1009.02
2019-03-27T05:32:49.387Z,1009.04
2019-03-27T05:33:49.396Z,1009.00
2019-03-27T05:34:49.389Z,1009.07
2019-03-27T05:35:49.379Z,1009.04
2019-03-27T05:36:49.347Z,1009.12
2019-03-27T05:37:49.332Z,1009.02
2019-03-27T05:38:49.336Z,1009.06
2019-03-27T05:39:49.314Z,1009.04
2019-03-27T05:40:49.313Z,1009.00
2019-03-27T05:41:49.308Z,1009.02
2019-03-27T05:42:59.974Z,1009.06
2019-03-27T05:43:50.268Z,1008.99
2019-03-27T05:44:49.264Z,1009.02
2019-03-27T05:45:49.249Z,1009.06
2019-03-27T05:46:49.234Z,1009.09
2019-03-27T05:47:59.343Z,1009.03
2019-03-27T05:48:50.213Z,1009.12
2019-03-27T05:49:49.205Z,1009.10
2019-03-27T05:50:49.191Z,1009.09
2019-03-27T05:51:49.210Z,1009.14
2019-03-27T05:52:49.197Z,1009.13
2019-03-27T05:53:49.183Z,1009.09
2019-03-27T05:54:49.174Z,1009.09
2019-03-27T05:55:49.133Z,1009.14
2019-03-27T05:56:49.123Z,1009.13
2019-03-27T05:57:49.118Z,1009.17
2019-03-27T05:58:49.108Z,1009.25
2019-03-27T05:59:49.118Z,1009.32
2019-03-27T06:00:49.087Z,1009.31
2019-03-27T06:01:49.086Z,1009.37
2019-03-27T06:02:49.067Z,1009.40
2019-03-27T06:03:49.048Z,1009.38
2019-03-27T06:04:49.062Z,1009.36
2019-03-27T06:05:49.044Z,1009.36
2019-03-27T06:06:49.013Z,1009.45
2019-03-27T06:07:49.010Z,1009.47
2019-03-27T06:08:49.021Z,1009.51
2019-03-27T06:09:48.988Z,1009.51
2019-03-27T06:10:48.969Z,1009.54
2019-03-27T06:11:48.978Z,1009.52
2019-03-27T06:12:48.950Z,1009.61
2019-03-27T06:13:48.938Z,1009.64
2019-03-27T06:14:48.938Z,1009.70
2019-03-27T06:15:48.921Z,1009.69
2019-03-27T06:16:48.908Z,1009.73
2019-03-27T06:17:48.917Z,1009.69
2019-03-27T06:18:48.890Z,1009.72
2019-03-27T06:19:48.876Z,1009.72
2019-03-27T06:20:48.862Z,1009.71
2019-03-27T06:21:48.855Z,1009.70
2019-03-27T06:22:48.845Z,1009.70
2019-03-27T06:23:48.846Z,1009.67
2019-03-27T06:24:48.817Z,1009.65
2019-03-27T06:25:48.811Z,1009.65
2019-03-27T06:26:48.798Z,1009.68
2019-03-27T06:27:48.786Z,1009.64
2019-03-27T06:28:48.788Z,1009.64
2019-03-27T06:29:48.784Z,1009.60
2019-03-27T06:30:48.757Z,1009.61
2019-03-27T06:31:48.742Z,1009.65
2019-03-27T06:32:48.732Z,1009.58
2019-03-27T06:33:48.725Z,1009.57
2019-03-27T06:34:48.711Z,1009.60
2019-03-27T06:35:48.737Z,1009.52
2019-03-27T06:36:48.687Z,1009.54
2019-03-27T06:37:48.746Z,1009.57
2019-03-27T06:38:48.666Z,1009.61
2019-03-27T06:39:48.657Z,1009.58
2019-03-27T06:40:48.646Z,1009.63
2019-03-27T06:41:48.665Z,1009.60
2019-03-27T06:42:48.625Z,1009.61
2019-03-27T06:43:48.616Z,1009.66
2019-03-27T06:44:48.603Z,1009.65
2019-03-27T06:45:48.594Z,1009.74
2019-03-27T06:46:48.583Z,1009.73
2019-03-27T06:47:48.618Z,1009.70
2019-03-27T06:48:48.567Z,1009.79
2019-03-27T06:49:48.551Z,1009.74
2019-03-27T06:50:48.547Z,1009.79
2019-03-27T06:51:48.532Z,1009.71
2019-03-27T06:52:48.531Z,1009.75
2019-03-27T06:53:48.539Z,1009.78
2019-03-27T06:54:48.503Z,1009.82
2019-03-27T06:55:48.495Z,1009.80
2019-03-27T06:56:48.483Z,1009.79
2019-03-27T06:57:48.514Z,1009.79
2019-03-27T06:58:54.369Z,1009.79
2019-03-27T06:59:49.465Z,1009.81
2019-03-27T07:00:48.466Z,1009.82
2019-03-27T07:01:48.435Z,1009.85
2019-03-27T07:02:48.418Z,1009.86
2019-03-27T07:03:48.409Z,1009.86
2019-03-27T07:04:48.397Z,1009.87
2019-03-27T07:05:48.406Z,1009.88
2019-03-27T07:06:48.386Z,1009.88
2019-03-27T07:07:48.376Z,1009.94
2019-03-27T07:08:48.361Z,1010.01
2019-03-27T07:09:48.347Z,1010.03
2019-03-27T07:10:48.335Z,1010.02
2019-03-27T07:11:48.354Z,1010.03
2019-03-27T07:12:48.319Z,1010.02
2019-03-27T07:13:48.308Z,1009.98
2019-03-27T07:14:48.295Z,1009.94
2019-03-27T07:15:48.295Z,1009.96
2019-03-27T07:16:48.280Z,1009.95
2019-03-27T07:17:48.296Z,1009.98
2019-03-27T07:18:48.276Z,1010.01
2019-03-27T07:19:48.244Z,1009.97
2019-03-27T07:20:48.238Z,1010.02
2019-03-27T07:21:48.223Z,1010.04
2019-03-27T07:22:48.217Z,1010.03
2019-03-27T07:23:48.222Z,1010.08
2019-03-27T07:24:48.196Z,1010.10
2019-03-27T07:25:48.199Z,1010.10
2019-03-27T07:26:48.176Z,1010.11
2019-03-27T07:27:48.165Z,1010.09
2019-03-27T07:28:48.159Z,1010.13
2019-03-27T07:29:48.174Z,1010.11
2019-03-27T07:30:48.129Z,1010.14
2019-03-27T07:31:48.122Z,1010.14
2019-03-27T07:32:48.131Z,1010.09
2019-03-27T07:33:48.103Z,1010.12
2019-03-27T07:34:48.095Z,1010.13
2019-03-27T07:35:48.096Z,1010.12
2019-03-27T07:36:48.073Z,1010.11
2019-03-27T07:37:48.056Z,1010.07
2019-03-27T07:38:48.042Z,1010.13
2019-03-27T07:39:48.035Z,1010.13
2019-03-27T07:40:48.021Z,1010.13
2019-03-27T07:41:48.036Z,1010.16
2019-03-27T07:42:48.000Z,1010.13
2019-03-27T07:43:47.990Z,1010.15
2019-03-27T07:44:47.981Z,1010.15
2019-03-27T07:45:47.972Z,1010.19
2019-03-27T07:46:47.957Z,1010.21
2019-03-27T07:47:48.316Z,1010.19
2019-03-27T07:48:53.675Z,1010.18
2019-03-27T07:49:48.922Z,1010.22
2019-03-27T07:50:47.911Z,1010.20
2019-03-27T07:51:47.898Z,1010.24
2019-03-27T07:52:47.889Z,1010.20
2019-03-27T07:53:47.897Z,1010.22
2019-03-27T07:54:47.878Z,1010.27
2019-03-27T07:55:47.852Z,1010.29
2019-03-27T07:56:47.843Z,1010.33
2019-03-27T07:57:47.828Z,1010.35
2019-03-27T07:58:47.822Z,1010.34
2019-03-27T07:59:47.827Z,1010.42
2019-03-27T08:00:47.804Z,1010.37
2019-03-27T08:01:47.801Z,1010.37
2019-03-27T08:02:47.774Z,1010.37
2019-03-27T08:03:47.769Z,1010.37
2019-03-27T08:04:47.752Z,1010.38
2019-03-27T08:05:47.763Z,1010.47
2019-03-27T08:06:47.727Z,1010.44
2019-03-27T08:07:47.737Z,1010.49
2019-03-27T08:08:47.705Z,1010.51
2019-03-27T08:09:47.703Z,1010.50
2019-03-27T08:10:47.681Z,1010.48
2019-03-27T08:11:47.693Z,1010.51
2019-03-27T08:12:47.661Z,1010.51
2019-03-27T08:13:47.643Z,1010.50
2019-03-27T08:14:47.637Z,1010.54
2019-03-27T08:15:47.619Z,1010.50
2019-03-27T08:16:47.607Z,1010.54
2019-03-27T08:17:47.612Z,1010.51
2019-03-27T08:18:47.620Z,1010.56
2019-03-27T08:19:47.572Z,1010.59
2019-03-27T08:20:47.557Z,1010.57
2019-03-27T08:21:47.553Z,1010.55
2019-03-27T08:22:47.536Z,1010.68
2019-03-27T08:23:47.543Z,1010.75
2019-03-27T08:24:47.525Z,1010.71
2019-03-27T08:25:47.501Z,1010.64
2019-03-27T08:26:47.488Z,1010.64
2019-03-27T08:27:47.499Z,1010.62
2019-03-27T08:28:47.464Z,1010.65
2019-03-27T08:29:47.479Z,1010.65
2019-03-27T08:30:47.443Z,1010.64
2019-03-27T08:31:47.430Z,1010.64
2019-03-27T08:32:47.424Z,1010.65
2019-03-27T08:33:47.409Z,1010.65
2019-03-27T08:34:47.405Z,1010.61
2019-03-27T08:35:47.403Z,1010.70
2019-03-27T08:36:47.390Z,1010.63
2019-03-27T08:37:47.364Z,1010.65
2019-03-27T08:38:47.353Z,1010.67
2019-03-27T08:39:47.342Z,1010.63
2019-03-27T08:40:47.335Z,1010.67
2019-03-27T08:41:47.343Z,1010.74
2019-03-27T08:42:47.305Z,1010.73
2019-03-27T08:43:47.311Z,1010.81
2019-03-27T08:44:47.295Z,1010.83
2019-03-27T08:45:47.274Z,1010.77
2019-03-27T08:46:47.260Z,1010.73
2019-03-27T08:47:47.275Z,1010.78
2019-03-27T08:48:47.245Z,1010.75
2019-03-27T08:49:47.285Z,1010.74
2019-03-27T08:50:47.214Z,1010.73
2019-03-27T08:51:47.208Z,1010.69
2019-03-27T08:52:47.193Z,1010.75
2019-03-27T08:53:47.202Z,1010.74
2019-03-27T08:54:47.170Z,1010.76
2019-03-27T08:55:47.162Z,1010.76
2019-03-27T08:56:47.148Z,1010.79
2019-03-27T08:57:47.139Z,1010.80
2019-03-27T08:58:47.131Z,1010.83
2019-03-27T08:59:47.134Z,1010.85
2019-03-27T09:00:47.111Z,1010.89
2019-03-27T09:01:47.095Z,1011.04
2019-03-27T09:02:47.086Z,1011.04
2019-03-27T09:03:47.068Z,1011.19
2019-03-27T09:04:47.081Z,1011.00
2019-03-27T09:05:47.060Z,1011.05
2019-03-27T09:06:47.036Z,1011.14
2019-03-27T09:07:47.022Z,1011.34
2019-03-27T09:08:47.014Z,1011.07
2019-03-27T09:09:46.999Z,1011.04
2019-03-27T09:10:47.029Z,1011.03
2019-03-27T09:11:46.994Z,1011.01
2019-03-27T09:12:46.967Z,1011.00
2019-03-27T09:13:46.957Z,1010.88
2019-03-27T09:14:46.950Z,1011.16
2019-03-27T09:15:46.932Z,1011.33
2019-03-27T09:16:46.921Z,1011.58
2019-03-27T09:17:46.930Z,1011.66
2019-03-27T09:18:46.926Z,1011.75
2019-03-27T09:19:46.890Z,1011.83
2019-03-27T09:20:46.886Z,1011.78
2019-03-27T09:21:46.871Z,1011.76
2019-03-27T09:22:46.854Z,1011.75
2019-03-27T09:23:46.863Z,1011.73
2019-03-27T09:24:46.831Z,1011.65
2019-03-27T09:25:46.821Z,1011.74
2019-03-27T09:26:46.807Z,1011.81
2019-03-27T09:27:46.801Z,1011.87
2019-03-27T09:28:46.808Z,1011.88
2019-03-27T09:29:46.810Z,1011.92
2019-03-27T09:30:46.780Z,1011.81
2019-03-27T09:31:46.754Z,1011.64
2019-03-27T09:32:46.773Z,1011.13
2019-03-27T09:33:46.733Z,1010.97
2019-03-27T09:34:46.728Z,1010.88
2019-03-27T09:35:46.758Z,1010.93
2019-03-27T09:36:46.700Z,1010.82
2019-03-27T09:37:46.689Z,1010.80
2019-03-27T09:38:46.682Z,1010.78
2019-03-27T09:39:46.665Z,1010.75
2019-03-27T09:40:46.661Z,1010.77
2019-03-27T09:41:46.656Z,1010.77
2019-03-27T09:42:46.628Z,1010.76
2019-03-27T09:43:46.680Z,1010.75
2019-03-27T09:44:46.612Z,1010.73
2019-03-27T09:45:46.599Z,1010.66
2019-03-27T09:46:46.589Z,1010.66
2019-03-27T09:47:46.599Z,1010.71
2019-03-27T09:48:46.565Z,1010.75
2019-03-27T09:49:49.679Z,1010.75
2019-03-27T09:50:46.539Z,1010.79
2019-03-27T09:51:46.529Z,1010.77
2019-03-27T09:52:46.521Z,1010.76
2019-03-27T09:53:46.531Z,1010.83
2019-03-27T09:54:46.495Z,1010.82
2019-03-27T09:55:46.483Z,1010.79
2019-03-27T09:56:46.472Z,1010.74
2019-03-27T09:57:46.460Z,1010.74
2019-03-27T09:58:46.450Z,1010.71
2019-03-27T09:59:46.457Z,1010.72
2019-03-27T10:00:46.428Z,1010.95
2019-03-27T10:01:46.421Z,1010.86
2019-03-27T10:02:46.404Z,1011.48
2019-03-27T10:03:46.393Z,1011.65
2019-03-27T10:04:46.383Z,1011.67
2019-03-27T10:05:46.391Z,1011.70
2019-03-27T10:06:46.360Z,1011.63
2019-03-27T10:07:46.351Z,1011.66
2019-03-27T10:08:46.336Z,1011.65
2019-03-27T10:09:46.325Z,1011.68
2019-03-27T10:10:46.317Z,1011.79
2019-03-27T10:11:46.324Z,1011.75
2019-03-27T10:12:46.292Z,1011.76
2019-03-27T10:13:46.281Z,1011.73
2019-03-27T10:14:47.673Z,1011.48
2019-03-27T10:15:46.265Z,1011.58
2019-03-27T10:16:46.251Z,1011.16
2019-03-27T10:17:46.253Z,1011.16
2019-03-27T10:18:47.586Z,1011.17
2019-03-27T10:19:46.226Z,1011.18
2019-03-27T10:20:46.202Z,1011.36
2019-03-27T10:21:46.189Z,1011.14
2019-03-27T10:22:46.179Z,1011.02
2019-03-27T10:23:46.241Z,1010.98
2019-03-27T10:24:46.161Z,1010.98
2019-03-27T10:25:46.149Z,1010.90
2019-03-27T10:26:46.149Z,1010.85
2019-03-27T10:27:46.127Z,1010.84
2019-03-27T10:28:46.119Z,1010.84
2019-03-27T10:29:46.126Z,1010.77
2019-03-27T10:30:46.104Z,1010.74
2019-03-27T10:31:46.078Z,1010.75
2019-03-27T10:32:46.070Z,1010.77
2019-03-27T10:33:46.057Z,1010.77
2019-03-27T10:34:46.051Z,1010.81
2019-03-27T10:35:46.058Z,1010.82
2019-03-27T10:36:46.023Z,1010.83
2019-03-27T10:37:46.012Z,1010.79
2019-03-27T10:38:46.000Z,1010.78
2019-03-27T10:39:45.991Z,1010.76
2019-03-27T10:40:45.985Z,1010.78
2019-03-27T10:41:45.983Z,1010.74
2019-03-27T10:42:45.957Z,1010.75
2019-03-27T10:43:45.947Z,1010.73
2019-03-27T10:44:45.937Z,1010.75
2019-03-27T10:45:45.923Z,1010.77
2019-03-27T10:46:45.915Z,1010.79
2019-03-27T10:47:45.925Z,1010.81
2019-03-27T10:48:52.502Z,1010.81
2019-03-27T10:49:46.884Z,1010.77
2019-03-27T10:50:45.872Z,1010.80
2019-03-27T10:51:45.856Z,1010.81
2019-03-27T10:52:45.860Z,1010.76
2019-03-27T10:53:45.853Z,1010.75
2019-03-27T10:54:45.825Z,1010.85
2019-03-27T10:55:45.915Z,1010.84
2019-03-27T10:56:45.808Z,1010.81
2019-03-27T10:57:45.798Z,1010.79
2019-03-27T10:58:45.782Z,1010.75
2019-03-27T10:59:45.787Z,1010.70
2019-03-27T11:00:45.757Z,1010.75
2019-03-27T11:01:45.745Z,1010.74
2019-03-27T11:02:45.733Z,1010.75
2019-03-27T11:03:45.722Z,1010.80
2019-03-27T11:04:45.713Z,1010.84
2019-03-27T11:05:45.717Z,1010.80
2019-03-27T11:06:45.696Z,1010.86
2019-03-27T11:07:45.677Z,1010.83
2019-03-27T11:08:45.667Z,1010.86
2019-03-27T11:09:45.656Z,1010.87
2019-03-27T11:10:45.643Z,1010.88
2019-03-27T11:11:45.663Z,1010.85
2019-03-27T11:12:45.623Z,1010.89
2019-03-27T11:13:45.609Z,1010.88
2019-03-27T11:14:45.599Z,1010.83
2019-03-27T11:15:45.591Z,1010.82
2019-03-27T11:16:45.576Z,1010.87
2019-03-27T11:17:45.579Z,1010.85
2019-03-27T11:18:45.555Z,1010.85
2019-03-27T11:19:45.540Z,1010.88
2019-03-27T11:20:45.530Z,1010.92
2019-03-27T11:21:45.518Z,1010.97
2019-03-27T11:22:45.512Z,1010.97
2019-03-27T11:23:45.513Z,1010.95
2019-03-27T11:24:45.488Z,1010.98
2019-03-27T11:25:45.477Z,1010.96
2019-03-27T11:26:45.460Z,1010.91
2019-03-27T11:27:45.454Z,1010.91
2019-03-27T11:28:45.438Z,1010.91
2019-03-27T11:29:45.442Z,1010.93
2019-03-27T11:30:48.253Z,1010.88
2019-03-27T11:31:45.410Z,1010.80
2019-03-27T11:32:45.396Z,1010.92
2019-03-27T11:33:45.383Z,1010.90
2019-03-27T11:34:45.371Z,1010.89
2019-03-27T11:35:45.380Z,1010.93
2019-03-27T11:36:45.349Z,1010.91
2019-03-27T11:37:45.343Z,1010.87
2019-03-27T11:38:45.326Z,1010.85
2019-03-27T11:39:45.315Z,1010.83
2019-03-27T11:40:45.306Z,1010.88
2019-03-27T11:41:45.306Z,1010.86
2019-03-27T11:42:45.281Z,1010.86
2019-03-27T11:43:54.845Z,1010.82
2019-03-27T11:44:46.256Z,1010.89
2019-03-27T11:45:45.245Z,1010.85
2019-03-27T11:46:45.237Z,1010.81
2019-03-27T11:47:45.252Z,1010.82
2019-03-27T11:48:45.213Z,1010.79
2019-03-27T11:49:45.205Z,1010.81
2019-03-27T11:50:45.644Z,1010.81
2019-03-27T11:51:45.178Z,1010.85
2019-03-27T11:52:45.172Z,1010.81
2019-03-27T11:53:45.175Z,1010.83
2019-03-27T11:54:45.143Z,1010.81
2019-03-27T11:55:45.138Z,1010.87
2019-03-27T11:56:45.122Z,1010.85
2019-03-27T11:57:45.109Z,1010.81
2019-03-27T11:58:45.099Z,1010.84
2019-03-27T11:59:53.913Z,1010.82
2019-03-27T12:00:54.282Z,1010.82
2019-03-27T12:01:46.077Z,1010.75
2019-03-27T12:02:45.052Z,1010.77
2019-03-27T12:03:45.047Z,1010.78
2019-03-27T12:04:45.034Z,1010.77
2019-03-27T12:05:45.839Z,1010.83